Terminal Aerodrome Forecast
Issued by NWS

Home | Current Version | Previous Version | Text Only | Print | Product List | Glossary On
Versions: 1 2 3 4 5 6 7 8 9 10 11 12 13 14 15 16 17 18 19 20 21 22 23 24
000
FTUS43 KILX 291100
TAFBMI
TAF
KBMI 291128Z 2912/3012 29018G30KT P6SM VCSH SCT006 OVC010
     FM291900 32020G28KT P6SM OVC012
     FM292300 31018G28KT P6SM OVC015
     FM300600 32014G24KT P6SM BKN020=

USA.gov is the U.S. government's official web portal to all federal, state and local government web resources and services.